Time;durP1;ratioP1;P1;durP2;ratioP2;P2;SDS_P1;SDS_P2;PMS_P1;PMS_P2;Temp;Humidity;BMP_temperature;BMP_pressure;BME280_temperature;BME280_humidity;BME280_pressure;Samples;Min_cycle;Max_cycle;Signal;HPM_P1;HPM_P2
2020/12/24 00:00:19;;;;;;;1.42;1.20;;;12.00;93.30;;;;;;2080012;28;20073;-74
2020/12/24 00:01:19;;;;;;;1.77;1.10;;;12.00;93.30;;;;;;2080306;28;20452;-74
2020/12/24 00:02:20;;;;;;;3.10;1.40;;;11.90;93.40;;;;;;2080641;28;20029;-73
2020/12/24 00:03:21;;;;;;;1.55;1.17;;;11.90;93.30;;;;;;2072728;28;20056;-74
2020/12/24 00:04:22;;;;;;;1.42;1.25;;;11.90;93.30;;;;;;2079844;28;20092;-74
2020/12/24 00:05:23;;;;;;;1.10;1.00;;;11.90;93.40;;;;;;2081119;28;20477;-74
2020/12/24 00:06:24;;;;;;;1.35;1.10;;;11.90;93.40;;;;;;2080790;28;20420;-74
2020/12/24 00:07:24;;;;;;;1.00;1.00;;;11.90;93.30;;;;;;2072790;28;20121;-75
2020/12/24 00:08:25;;;;;;;1.25;1.08;;;11.90;93.60;;;;;;2072356;28;20440;-74
2020/12/24 00:09:26;;;;;;;1.10;1.02;;;11.90;93.50;;;;;;2079872;28;20029;-74
2020/12/24 00:10:27;;;;;;;1.48;1.35;;;11.90;93.10;;;;;;2072804;28;20030;-74
2020/12/24 00:11:28;;;;;;;1.60;1.30;;;11.90;93.00;;;;;;2072606;28;20778;-74
2020/12/24 00:12:28;;;;;;;2.00;1.30;;;12.00;92.90;;;;;;2088397;28;20041;-75
2020/12/24 00:13:29;;;;;;;1.23;1.23;;;12.00;92.90;;;;;;2081380;28;20026;-75
2020/12/24 00:14:30;;;;;;;1.45;1.20;;;12.00;92.90;;;;;;2080600;28;20025;-74
2020/12/24 00:15:31;;;;;;;1.33;1.13;;;12.00;92.90;;;;;;2081392;28;20465;-73
2020/12/24 00:16:31;;;;;;;1.80;1.17;;;12.00;92.90;;;;;;2081946;28;20021;-73
2020/12/24 00:17:32;;;;;;;1.20;1.10;;;12.00;92.80;;;;;;2083722;28;20025;-73
2020/12/24 00:18:33;;;;;;;2.25;1.42;;;12.00;92.80;;;;;;2081026;28;20025;-73
2020/12/24 00:19:33;;;;;;;1.02;1.00;;;12.00;92.80;;;;;;2081040;28;20040;-73
2020/12/24 00:20:34;;;;;;;1.50;1.40;;;11.90;92.80;;;;;;2089352;28;20029;-74
2020/12/24 00:21:38;;;;;;;1.02;1.02;;;12.00;92.80;;;;;;2088485;28;20029;-73
2020/12/24 00:22:39;;;;;;;1.45;1.20;;;11.90;92.70;;;;;;2089103;28;20041;-73
2020/12/24 00:23:40;;;;;;;2.13;1.30;;;12.00;92.70;;;;;;2088815;28;20036;-73
2020/12/24 00:24:41;;;;;;;2.25;1.17;;;12.00;92.60;;;;;;2082256;28;20032;-74
2020/12/24 00:25:42;;;;;;;1.42;1.30;;;12.00;92.60;;;;;;2082460;28;20021;-73
2020/12/24 00:26:42;;;;;;;3.83;1.40;;;12.00;92.60;;;;;;2081630;28;20064;-75
2020/12/24 00:27:43;;;;;;;1.60;1.45;;;11.90;92.60;;;;;;2082120;28;20029;-74
2020/12/24 00:28:44;;;;;;;1.77;1.67;;;12.00;92.60;;;;;;2081699;28;20021;-74
2020/12/24 00:29:45;;;;;;;1.55;1.13;;;11.90;92.60;;;;;;2081892;28;20029;-75
2020/12/24 00:30:45;;;;;;;1.05;1.05;;;11.90;92.60;;;;;;2082084;28;20014;-75
2020/12/24 00:31:46;;;;;;;1.15;1.10;;;11.90;92.60;;;;;;2071713;28;20469;-75
2020/12/24 00:32:47;;;;;;;1.38;1.27;;;11.90;92.60;;;;;;2080093;28;20033;-75
2020/12/24 00:33:48;;;;;;;1.40;1.30;;;11.90;92.60;;;;;;2087961;28;20378;-74
2020/12/24 00:34:48;;;;;;;1.10;1.10;;;11.90;92.70;;;;;;2087983;28;20041;-74
2020/12/24 00:35:49;;;;;;;1.42;1.20;;;11.90;92.70;;;;;;2080689;28;20029;-74
2020/12/24 00:36:50;;;;;;;1.70;1.30;;;11.90;92.60;;;;;;2080528;28;20036;-75
2020/12/24 00:37:50;;;;;;;1.58;1.40;;;11.80;92.60;;;;;;2080603;28;20550;-76
2020/12/24 00:38:51;;;;;;;1.48;1.38;;;11.80;92.60;;;;;;2087582;28;20033;-75
2020/12/24 00:39:52;;;;;;;1.60;1.50;;;11.80;92.60;;;;;;2088085;28;20017;-75
2020/12/24 00:40:53;;;;;;;1.42;1.20;;;11.80;92.50;;;;;;2080468;28;20116;-75
2020/12/24 00:41:54;;;;;;;1.30;1.20;;;11.80;92.60;;;;;;2080432;28;20552;-75
2020/12/24 00:42:55;;;;;;;2.42;1.27;;;11.80;92.60;;;;;;2080266;28;20072;-75
2020/12/24 00:43:56;;;;;;;1.48;1.20;;;11.80;92.60;;;;;;2079538;28;20040;-76
2020/12/24 00:44:57;;;;;;;1.25;1.20;;;11.80;92.60;;;;;;2079629;28;20049;-74
2020/12/24 00:45:57;;;;;;;1.30;1.20;;;11.70;92.60;;;;;;2080366;28;20022;-75
2020/12/24 00:46:58;;;;;;;1.58;1.20;;;11.70;92.60;;;;;;2079563;28;20030;-75
2020/12/24 00:47:59;;;;;;;1.40;1.30;;;11.70;92.50;;;;;;2080062;28;20547;-74
2020/12/24 00:48:59;;;;;;;1.20;1.10;;;11.70;92.50;;;;;;2080447;28;20029;-74
2020/12/24 00:50:00;;;;;;;1.27;1.17;;;11.70;92.40;;;;;;2087868;28;20014;-73
2020/12/24 00:51:01;;;;;;;1.33;1.20;;;11.70;92.40;;;;;;2079846;28;20017;-74
2020/12/24 00:52:02;;;;;;;1.50;1.40;;;11.70;92.30;;;;;;2071835;28;20026;-75
2020/12/24 00:53:03;;;;;;;1.70;1.30;;;11.70;92.30;;;;;;2080028;28;20034;-74
2020/12/24 00:54:07;;;;;;;2.38;1.40;;;11.70;92.20;;;;;;2080101;28;20021;-74
2020/12/24 00:55:08;;;;;;;1.70;1.10;;;11.70;92.20;;;;;;2083164;28;20483;-75
2020/12/24 00:56:10;;;;;;;1.30;1.20;;;11.70;92.20;;;;;;2074600;28;20037;-74
2020/12/24 00:57:15;;;;;;;1.33;1.23;;;11.70;92.20;;;;;;2081982;28;20539;-74
2020/12/24 00:58:16;;;;;;;1.48;1.17;;;11.70;92.20;;;;;;2082786;28;20093;-74
2020/12/24 00:59:18;;;;;;;1.48;1.10;;;11.70;92.20;;;;;;2082756;28;20512;-73
2020/12/24 01:00:19;;;;;;;1.15;1.10;;;11.70;92.10;;;;;;2082101;28;20064;-74
2020/12/24 01:01:20;;;;;;;1.30;1.20;;;11.70;92.10;;;;;;2091540;28;20032;-74
2020/12/24 01:02:20;;;;;;;1.48;1.10;;;11.70;92.10;;;;;;2083787;28;20029;-74
2020/12/24 01:03:21;;;;;;;1.27;1.17;;;11.60;92.00;;;;;;2085986;28;20025;-74
2020/12/24 01:04:22;;;;;;;1.30;1.20;;;11.60;92.10;;;;;;2082967;28;20029;-74
2020/12/24 01:05:23;;;;;;;1.67;1.10;;;11.60;92.20;;;;;;2081422;28;20037;-74
2020/12/24 01:06:23;;;;;;;1.20;1.10;;;11.50;92.30;;;;;;2081238;28;20069;-75
2020/12/24 01:07:24;;;;;;;2.53;1.20;;;11.50;92.40;;;;;;2072985;28;20034;-73
2020/12/24 01:08:25;;;;;;;1.92;1.20;;;11.50;92.50;;;;;;2081107;28;20042;-74
2020/12/24 01:09:25;;;;;;;1.45;1.35;;;11.50;92.40;;;;;;2088975;28;20029;-74
2020/12/24 01:10:26;;;;;;;2.00;1.30;;;11.50;92.40;;;;;;2081497;28;20031;-74
2020/12/24 01:11:31;;;;;;;1.23;1.13;;;11.50;92.40;;;;;;2080686;28;20163;-73
2020/12/24 01:12:32;;;;;;;1.17;1.10;;;11.50;92.40;;;;;;2081464;28;20100;-74
2020/12/24 01:13:32;;;;;;;1.73;1.17;;;11.50;92.50;;;;;;2089351;28;20017;-74
2020/12/24 01:14:33;;;;;;;1.27;1.13;;;11.50;92.40;;;;;;2081466;28;20117;-74
2020/12/24 01:15:34;;;;;;;1.40;1.30;;;11.40;92.40;;;;;;2081469;28;20021;-75
2020/12/24 01:16:35;;;;;;;1.48;1.35;;;11.40;92.50;;;;;;2081475;28;20029;-75
2020/12/24 01:17:36;;;;;;;2.80;1.20;;;11.40;92.50;;;;;;2084950;28;20021;-74
2020/12/24 01:18:37;;;;;;;1.40;1.30;;;11.40;92.50;;;;;;2089792;28;20024;-74
2020/12/24 01:19:37;;;;;;;1.90;1.30;;;11.40;92.50;;;;;;2089243;28;20461;-74
2020/12/24 01:20:38;;;;;;;1.45;1.20;;;11.40;92.60;;;;;;2089741;28;20118;-74
2020/12/24 01:21:45;;;;;;;1.30;1.20;;;11.30;92.70;;;;;;2088772;28;20044;-74
2020/12/24 01:22:46;;;;;;;1.55;1.20;;;11.30;92.70;;;;;;2089078;28;20021;-74
2020/12/24 01:23:46;;;;;;;1.50;1.40;;;11.30;92.80;;;;;;2090049;28;20025;-73
2020/12/24 01:24:47;;;;;;;2.20;1.40;;;11.20;92.80;;;;;;2089245;28;20048;-74
2020/12/24 01:25:48;;;;;;;1.30;1.20;;;11.20;92.90;;;;;;2080892;28;20421;-73
2020/12/24 01:26:49;;;;;;;1.38;1.20;;;11.20;93.10;;;;;;2089461;28;20051;-74
2020/12/24 01:27:50;;;;;;;1.83;1.27;;;11.20;93.10;;;;;;2090099;28;20074;-73
2020/12/24 01:28:50;;;;;;;1.42;1.20;;;11.10;93.10;;;;;;2089297;28;20434;-74
2020/12/24 01:29:51;;;;;;;1.60;1.30;;;11.10;93.60;;;;;;2090263;28;20082;-75
2020/12/24 01:30:52;;;;;;;1.60;1.30;;;11.10;93.30;;;;;;2090117;28;20081;-74
2020/12/24 01:31:53;;;;;;;1.35;1.25;;;11.10;93.20;;;;;;2089419;28;20102;-75
2020/12/24 01:32:54;;;;;;;1.58;1.33;;;11.10;93.10;;;;;;2089507;28;20028;-74
2020/12/24 01:33:55;;;;;;;1.30;1.20;;;11.20;93.00;;;;;;2090112;28;20017;-74
2020/12/24 01:34:55;;;;;;;2.13;1.15;;;11.20;92.90;;;;;;2089388;28;20036;-74
2020/12/24 01:35:58;;;;;;;1.30;1.10;;;11.20;93.00;;;;;;2081287;28;20378;-74
2020/12/24 01:37:02;;;;;;;1.58;1.30;;;11.20;93.10;;;;;;2081511;28;20028;-75
2020/12/24 01:38:03;;;;;;;1.80;1.20;;;11.20;93.10;;;;;;2089612;28;20037;-74
2020/12/24 01:39:03;;;;;;;2.95;1.40;;;11.20;93.00;;;;;;2089169;28;20082;-75
2020/12/24 01:40:05;;;;;;;2.00;1.25;;;11.20;93.00;;;;;;2089419;28;20028;-75
2020/12/24 01:41:05;;;;;;;1.52;1.30;;;11.20;92.90;;;;;;2089430;28;20033;-74
2020/12/24 01:42:06;;;;;;;1.58;1.10;;;11.20;92.90;;;;;;2089362;28;20127;-74
2020/12/24 01:43:07;;;;;;;1.80;1.30;;;11.20;92.90;;;;;;2089699;28;20037;-73
2020/12/24 01:44:08;;;;;;;1.30;1.20;;;11.20;92.90;;;;;;2089633;28;20043;-73
2020/12/24 01:45:08;;;;;;;2.38;1.30;;;11.20;92.90;;;;;;2088784;28;20021;-73
2020/12/24 01:46:09;;;;;;;2.22;1.40;;;11.20;92.80;;;;;;2089009;28;20084;-73
2020/12/24 01:47:10;;;;;;;2.22;1.40;;;11.20;92.80;;;;;;2089496;28;20120;-73
2020/12/24 01:48:10;;;;;;;1.27;1.13;;;11.20;92.80;;;;;;2088912;28;20079;-73
2020/12/24 01:49:11;;;;;;;1.73;1.30;;;11.20;92.70;;;;;;2088307;28;20084;-73
2020/12/24 01:50:12;;;;;;;1.30;1.20;;;11.30;92.70;;;;;;2089529;28;20539;-74
2020/12/24 01:51:29;;;;;;;1.45;1.25;;;11.20;92.50;;;;;;2088926;28;20032;-72
2020/12/24 01:52:36;;;;;;;1.33;1.23;;;11.30;92.50;;;;;;2088913;28;20112;-73
2020/12/24 01:53:36;;;;;;;1.85;1.25;;;11.30;92.40;;;;;;2081208;28;20438;-73
2020/12/24 01:54:37;;;;;;;1.88;1.40;;;11.30;92.60;;;;;;2080916;28;20029;-74
2020/12/24 01:55:38;;;;;;;2.78;1.23;;;11.40;92.40;;;;;;2080507;28;20080;-74
2020/12/24 01:56:39;;;;;;;1.30;1.20;;;11.40;92.30;;;;;;2081112;28;20063;-75
2020/12/24 01:57:40;;;;;;;1.48;1.10;;;11.40;92.20;;;;;;2082156;28;20029;-75
2020/12/24 01:58:41;;;;;;;2.33;1.38;;;11.40;92.20;;;;;;2081797;28;20045;-75
2020/12/24 01:59:41;;;;;;;2.35;1.30;;;11.40;92.20;;;;;;2081381;28;20104;-75
2020/12/24 02:00:46;;;;;;;1.98;1.20;;;11.40;92.10;;;;;;2081235;28;20033;-75
2020/12/24 02:01:48;;;;;;;1.77;1.25;;;11.40;92.10;;;;;;2080818;28;20469;-74
2020/12/24 02:02:49;;;;;;;1.30;1.20;;;11.40;92.10;;;;;;2081133;28;20022;-74
2020/12/24 02:03:50;;;;;;;2.35;1.20;;;11.40;92.10;;;;;;2081578;28;20029;-74
2020/12/24 02:04:51;;;;;;;1.35;1.20;;;11.40;92.10;;;;;;2081037;28;20021;-74
2020/12/24 02:05:52;;;;;;;2.17;1.40;;;11.40;92.10;;;;;;2081126;28;20020;-74
2020/12/24 02:06:52;;;;;;;1.52;1.23;;;11.40;92.10;;;;;;2081717;28;20029;-74
2020/12/24 02:07:53;;;;;;;2.42;1.10;;;11.40;92.00;;;;;;2081017;28;20021;-74
2020/12/24 02:08:54;;;;;;;2.63;1.45;;;11.40;92.00;;;;;;2080682;28;20108;-74
2020/12/24 02:09:55;;;;;;;1.58;1.35;;;11.40;91.80;;;;;;2081818;28;20079;-76
2020/12/24 02:10:55;;;;;;;2.72;1.23;;;11.50;91.80;;;;;;2081054;28;20022;-76
2020/12/24 02:11:57;;;;;;;1.30;1.20;;;11.40;91.70;;;;;;2080578;28;20101;-76
2020/12/24 02:12:58;;;;;;;1.30;1.20;;;11.50;91.80;;;;;;2081507;28;20029;-76
2020/12/24 02:13:59;;;;;;;1.77;1.35;;;11.50;91.60;;;;;;2072392;28;20022;-77
2020/12/24 02:15:00;;;;;;;1.92;1.20;;;11.50;91.60;;;;;;2072775;28;20022;-76
2020/12/24 02:16:01;;;;;;;1.35;1.25;;;11.50;91.60;;;;;;2080777;28;20036;-76
2020/12/24 02:17:01;;;;;;;1.25;1.17;;;11.50;91.70;;;;;;2080804;28;20022;-74
2020/12/24 02:18:02;;;;;;;2.08;1.20;;;11.40;91.70;;;;;;2088097;28;20542;-74
2020/12/24 02:19:04;;;;;;;2.10;1.58;;;11.40;91.70;;;;;;2088791;28;20157;-73
2020/12/24 02:20:05;;;;;;;2.55;1.20;;;11.40;91.80;;;;;;2089473;28;20488;-73
2020/12/24 02:21:06;;;;;;;2.85;1.42;;;11.40;91.90;;;;;;2089185;28;20039;-73
2020/12/24 02:22:07;;;;;;;1.50;1.20;;;11.40;91.90;;;;;;2088332;28;20029;-74
2020/12/24 02:23:08;;;;;;;1.52;1.10;;;11.40;91.80;;;;;;2088565;28;20052;-75
2020/12/24 02:24:09;;;;;;;2.03;1.50;;;11.30;91.80;;;;;;2088896;28;20403;-75
2020/12/24 02:25:09;;;;;;;1.52;1.15;;;11.40;91.90;;;;;;2089186;28;20074;-75
2020/12/24 02:26:10;;;;;;;2.35;1.38;;;11.30;91.80;;;;;;2089036;28;20049;-74
2020/12/24 02:27:11;;;;;;;1.33;1.23;;;11.30;91.90;;;;;;2089246;28;20033;-74
2020/12/24 02:28:12;;;;;;;1.73;1.20;;;11.30;91.90;;;;;;2088631;28;20029;-74
2020/12/24 02:29:13;;;;;;;1.73;1.38;;;11.30;91.90;;;;;;2088076;28;20025;-74
2020/12/24 02:30:13;;;;;;;1.48;1.10;;;11.30;92.00;;;;;;2089300;28;20462;-74
2020/12/24 02:31:14;;;;;;;1.35;1.25;;;11.30;92.00;;;;;;2088763;28;20021;-74
2020/12/24 02:32:15;;;;;;;2.17;1.30;;;11.20;92.00;;;;;;2089614;28;20473;-74
2020/12/24 02:33:16;;;;;;;1.52;1.20;;;11.20;92.10;;;;;;2089772;28;20120;-74
2020/12/24 02:34:17;;;;;;;1.75;1.30;;;11.20;92.10;;;;;;2089638;28;20074;-74
2020/12/24 02:35:17;;;;;;;1.73;1.40;;;11.20;92.10;;;;;;2089887;28;20025;-74
2020/12/24 02:36:18;;;;;;;1.38;1.20;;;11.20;92.20;;;;;;2089660;28;20029;-74
2020/12/24 02:37:19;;;;;;;2.55;1.25;;;11.20;92.10;;;;;;2089629;28;20024;-75
2020/12/24 02:38:19;;;;;;;1.38;1.23;;;11.20;92.10;;;;;;2089639;28;20029;-74
2020/12/24 02:39:20;;;;;;;2.35;1.45;;;11.20;92.30;;;;;;2088807;28;20032;-75
2020/12/24 02:40:21;;;;;;;2.85;1.40;;;11.20;91.90;;;;;;2089256;28;20086;-74
2020/12/24 02:41:22;;;;;;;2.85;1.52;;;11.30;91.80;;;;;;2088624;28;20053;-74
2020/12/24 02:42:23;;;;;;;2.03;1.38;;;11.30;91.70;;;;;;2088445;28;20064;-74
2020/12/24 02:43:24;;;;;;;2.53;1.38;;;11.30;91.70;;;;;;2088383;28;20570;-75
2020/12/24 02:44:25;;;;;;;2.55;1.50;;;11.30;91.70;;;;;;2089022;28;20074;-74
2020/12/24 02:45:26;;;;;;;1.30;1.20;;;11.30;91.60;;;;;;2088978;28;20631;-76
2020/12/24 02:46:27;;;;;;;1.77;1.20;;;11.30;91.70;;;;;;2088432;28;20392;-73
2020/12/24 02:47:27;;;;;;;1.90;1.20;;;11.30;91.60;;;;;;2088448;28;20453;-74
2020/12/24 02:48:28;;;;;;;2.17;1.50;;;11.30;91.60;;;;;;2088422;28;20072;-74
2020/12/24 02:49:29;;;;;;;1.83;1.30;;;11.30;91.60;;;;;;2088471;28;20036;-75
2020/12/24 02:50:29;;;;;;;2.13;1.40;;;11.30;91.60;;;;;;2089040;28;20039;-75
2020/12/24 02:51:30;;;;;;;1.70;1.60;;;11.30;91.60;;;;;;2088680;28;20410;-74
2020/12/24 02:52:31;;;;;;;2.05;1.10;;;11.30;91.60;;;;;;2089465;28;20128;-74
2020/12/24 02:53:32;;;;;;;1.80;1.30;;;11.30;91.60;;;;;;2088908;28;20106;-76
2020/12/24 02:54:32;;;;;;;2.17;1.33;;;11.30;91.50;;;;;;2080536;28;20104;-75
2020/12/24 02:55:33;;;;;;;1.80;1.33;;;11.30;91.60;;;;;;2088946;28;20021;-75
2020/12/24 02:56:33;;;;;;;2.38;1.35;;;11.30;91.60;;;;;;2089083;28;20499;-76
2020/12/24 02:57:34;;;;;;;2.75;1.48;;;11.30;91.60;;;;;;2080527;28;20428;-75
2020/12/24 02:58:35;;;;;;;2.88;1.50;;;11.20;91.60;;;;;;2080165;28;20025;-75
2020/12/24 02:59:39;;;;;;;1.35;1.17;;;11.30;91.70;;;;;;2079683;28;20111;-75
2020/12/24 03:00:40;;;;;;;2.70;1.30;;;11.20;91.60;;;;;;2089261;28;20029;-75
2020/12/24 03:01:41;;;;;;;1.98;1.70;;;11.30;91.60;;;;;;2088588;28;20048;-75
2020/12/24 03:02:41;;;;;;;2.72;1.60;;;11.30;91.60;;;;;;2089043;28;20471;-75
2020/12/24 03:03:42;;;;;;;1.65;1.30;;;11.30;91.50;;;;;;2089028;28;20074;-75
2020/12/24 03:04:43;;;;;;;2.13;1.50;;;11.30;91.60;;;;;;2088889;28;20025;-75
2020/12/24 03:05:43;;;;;;;2.20;1.30;;;11.30;91.80;;;;;;2089075;28;20048;-75
2020/12/24 03:06:44;;;;;;;1.95;1.35;;;11.30;91.80;;;;;;2088927;28;20025;-75
2020/12/24 03:07:49;;;;;;;1.40;1.30;;;11.30;91.50;;;;;;2088919;28;20021;-76
2020/12/24 03:08:50;;;;;;;2.35;1.20;;;11.30;91.50;;;;;;2088367;28;20027;-75
2020/12/24 03:09:53;;;;;;;2.13;1.33;;;11.30;91.50;;;;;;2088928;28;20026;-75
2020/12/24 03:10:55;;;;;;;2.13;1.40;;;11.30;91.50;;;;;;2088934;28;20476;-75
2020/12/24 03:11:55;;;;;;;1.83;1.38;;;11.30;91.50;;;;;;2087996;28;20025;-76
2020/12/24 03:12:56;;;;;;;1.60;1.50;;;11.30;91.40;;;;;;2088327;28;20017;-75
2020/12/24 03:13:57;;;;;;;2.55;1.40;;;11.30;91.70;;;;;;2088255;28;20036;-74
2020/12/24 03:14:57;;;;;;;2.05;1.42;;;11.40;91.30;;;;;;2080000;28;20033;-75
2020/12/24 03:15:58;;;;;;;2.83;1.48;;;11.40;91.20;;;;;;2088284;28;20508;-74
2020/12/24 03:16:59;;;;;;;3.55;1.70;;;11.40;91.20;;;;;;2088811;28;20516;-75
2020/12/24 03:17:59;;;;;;;1.85;1.30;;;11.40;91.10;;;;;;2082270;28;20029;-76
2020/12/24 03:19:00;;;;;;;1.70;1.20;;;11.40;91.00;;;;;;2080360;28;20071;-75
2020/12/24 03:20:01;;;;;;;4.47;1.48;;;11.50;91.00;;;;;;2081279;28;20025;-75
2020/12/24 03:21:02;;;;;;;1.88;1.20;;;11.50;91.00;;;;;;2081856;28;20492;-75
2020/12/24 03:22:02;;;;;;;2.15;1.60;;;11.50;90.90;;;;;;2081099;28;20139;-75
2020/12/24 03:23:03;;;;;;;1.58;1.25;;;11.50;90.90;;;;;;2081137;28;20030;-75
2020/12/24 03:24:04;;;;;;;4.28;1.45;;;11.50;91.00;;;;;;2080725;28;20120;-75
2020/12/24 03:25:05;;;;;;;1.83;1.60;;;11.40;90.90;;;;;;2080538;28;20064;-75
2020/12/24 03:26:06;;;;;;;1.88;1.30;;;11.40;90.90;;;;;;2079945;28;20063;-75
2020/12/24 03:27:06;;;;;;;3.15;1.75;;;11.40;90.90;;;;;;2079785;28;20041;-75
2020/12/24 03:28:07;;;;;;;2.03;1.40;;;11.40;90.90;;;;;;2071808;28;20034;-75
2020/12/24 03:29:08;;;;;;;3.47;1.50;;;11.40;90.90;;;;;;2079512;28;20042;-75
2020/12/24 03:30:10;;;;;;;2.00;1.30;;;11.40;90.90;;;;;;2080584;28;20032;-75
2020/12/24 03:31:10;;;;;;;2.67;1.40;;;11.40;90.90;;;;;;2080670;28;20029;-75
2020/12/24 03:32:11;;;;;;;2.95;1.60;;;11.40;90.90;;;;;;2071543;28;20145;-75
2020/12/24 03:33:12;;;;;;;2.05;1.77;;;11.30;91.00;;;;;;2071715;28;20044;-75
2020/12/24 03:34:13;;;;;;;2.15;1.60;;;11.30;91.10;;;;;;2071664;28;20041;-75
2020/12/24 03:35:13;;;;;;;2.65;1.83;;;11.30;91.10;;;;;;2071672;28;20092;-74
2020/12/24 03:36:15;;;;;;;3.13;1.30;;;11.30;91.20;;;;;;2079977;28;20156;-75
2020/12/24 03:37:15;;;;;;;2.05;1.30;;;11.30;91.20;;;;;;2080394;28;20030;-75
2020/12/24 03:38:16;;;;;;;1.83;1.40;;;11.20;91.30;;;;;;2071621;28;20037;-75
2020/12/24 03:39:17;;;;;;;2.00;1.40;;;11.30;91.30;;;;;;2071235;28;20037;-74
2020/12/24 03:40:17;;;;;;;3.97;1.40;;;11.20;91.20;;;;;;2080480;28;20043;-75
2020/12/24 03:41:18;;;;;;;1.98;1.33;;;11.20;91.30;;;;;;2079454;28;20037;-75
2020/12/24 03:42:19;;;;;;;2.30;1.48;;;11.30;91.30;;;;;;2079835;28;20033;-75
2020/12/24 03:43:19;;;;;;;2.65;1.50;;;11.20;91.20;;;;;;2079803;28;20456;-74
2020/12/24 03:44:20;;;;;;;3.33;1.50;;;11.30;91.10;;;;;;2079996;28;20033;-75
2020/12/24 03:45:21;;;;;;;1.90;1.33;;;11.30;91.20;;;;;;2080613;28;20029;-75
2020/12/24 03:46:22;;;;;;;2.83;1.60;;;11.30;91.10;;;;;;2080687;28;20481;-75
2020/12/24 03:47:22;;;;;;;3.10;1.50;;;11.30;90.90;;;;;;2079584;28;20021;-75
2020/12/24 03:48:23;;;;;;;2.13;1.38;;;11.30;90.90;;;;;;2080047;28;20095;-75
2020/12/24 03:49:24;;;;;;;2.05;1.70;;;11.40;90.80;;;;;;2080150;28;20116;-75
2020/12/24 03:50:24;;;;;;;1.88;1.50;;;11.40;90.90;;;;;;2080687;28;20027;-74
2020/12/24 03:51:25;;;;;;;2.25;1.48;;;11.40;90.80;;;;;;2080189;28;20041;-75
2020/12/24 03:52:26;;;;;;;2.28;1.35;;;11.40;90.80;;;;;;2080327;28;20021;-75
2020/12/24 03:53:27;;;;;;;2.42;1.40;;;11.40;90.70;;;;;;2080373;28;20496;-74
2020/12/24 03:54:27;;;;;;;2.75;1.40;;;11.40;90.80;;;;;;2080557;28;20048;-75
2020/12/24 03:55:28;;;;;;;1.63;1.33;;;11.40;90.70;;;;;;2080383;28;20033;-74
2020/12/24 03:56:29;;;;;;;2.75;1.58;;;11.40;90.60;;;;;;2079903;28;20029;-75
2020/12/24 03:57:29;;;;;;;2.15;1.40;;;11.40;90.70;;;;;;2080085;28;20385;-75
2020/12/24 03:58:30;;;;;;;2.53;1.42;;;11.40;90.70;;;;;;2080535;28;20029;-75
2020/12/24 03:59:31;;;;;;;2.65;1.60;;;11.40;90.60;;;;;;2079171;28;20527;-75
2020/12/24 04:00:31;;;;;;;1.55;1.30;;;11.40;90.60;;;;;;2079933;28;20112;-75
2020/12/24 04:01:32;;;;;;;2.10;1.60;;;11.40;90.60;;;;;;2080071;28;20038;-75
2020/12/24 04:02:33;;;;;;;1.80;1.40;;;11.40;90.60;;;;;;2079827;28;20056;-75
2020/12/24 04:03:33;;;;;;;1.73;1.40;;;11.40;90.50;;;;;;2071758;28;20034;-75
2020/12/24 04:04:34;;;;;;;1.63;1.50;;;11.40;90.50;;;;;;2071750;28;20394;-75
2020/12/24 04:05:35;;;;;;;1.98;1.60;;;11.40;90.50;;;;;;2080060;28;20025;-74
2020/12/24 04:06:35;;;;;;;2.28;1.42;;;11.40;90.60;;;;;;2079896;28;20037;-75
2020/12/24 04:07:36;;;;;;;2.15;1.45;;;11.40;90.70;;;;;;2079986;28;20087;-74
2020/12/24 04:08:37;;;;;;;3.45;1.73;;;11.30;90.70;;;;;;2080781;28;20148;-74
2020/12/24 04:09:37;;;;;;;2.58;1.50;;;11.30;90.70;;;;;;2080054;28;20128;-75
2020/12/24 04:10:38;;;;;;;1.83;1.55;;;11.40;90.70;;;;;;2080529;28;20032;-75
2020/12/24 04:11:39;;;;;;;2.35;1.73;;;11.30;90.70;;;;;;2080029;28;20038;-74
2020/12/24 04:12:40;;;;;;;2.42;1.70;;;11.30;90.80;;;;;;2080403;28;20033;-75
2020/12/24 04:13:40;;;;;;;1.98;1.65;;;11.30;90.80;;;;;;2080387;28;20104;-74
2020/12/24 04:14:41;;;;;;;1.40;1.30;;;11.30;90.70;;;;;;2079645;28;20461;-75
2020/12/24 04:15:42;;;;;;;2.65;1.45;;;11.30;91.10;;;;;;2079749;28;20064;-75
2020/12/24 04:16:43;;;;;;;1.30;1.20;;;11.30;90.70;;;;;;2080451;28;20030;-74
2020/12/24 04:17:43;;;;;;;1.92;1.60;;;11.30;90.70;;;;;;2084586;28;20024;-75
2020/12/24 04:18:44;;;;;;;3.20;1.70;;;11.30;90.70;;;;;;2088024;28;20032;-75
2020/12/24 04:19:45;;;;;;;3.25;1.65;;;11.30;90.70;;;;;;2087519;28;20091;-75
2020/12/24 04:20:45;;;;;;;2.42;1.48;;;11.30;90.60;;;;;;2088639;28;20017;-75
2020/12/24 04:21:46;;;;;;;2.17;1.73;;;11.40;90.50;;;;;;2087569;28;20040;-75
2020/12/24 04:22:47;;;;;;;2.22;1.63;;;11.40;90.50;;;;;;2087999;28;20507;-75
2020/12/24 04:23:47;;;;;;;3.22;1.75;;;11.40;90.40;;;;;;2088624;28;20020;-74
2020/12/24 04:24:48;;;;;;;1.88;1.40;;;11.40;90.30;;;;;;2088622;28;20111;-75
2020/12/24 04:25:49;;;;;;;2.00;1.60;;;11.50;90.20;;;;;;2088388;28;20025;-75
2020/12/24 04:26:53;;;;;;;3.05;1.60;;;11.50;90.20;;;;;;2089014;28;20522;-75
2020/12/24 04:27:54;;;;;;;3.22;1.55;;;11.50;90.20;;;;;;2088666;28;20013;-75
2020/12/24 04:28:54;;;;;;;2.10;1.50;;;11.40;90.20;;;;;;2087960;28;20458;-76
2020/12/24 04:29:55;;;;;;;3.10;1.48;;;11.40;90.30;;;;;;2087982;28;20021;-76
2020/12/24 04:30:56;;;;;;;3.20;1.50;;;11.40;90.20;;;;;;2088647;28;20029;-76
2020/12/24 04:31:57;;;;;;;3.33;1.60;;;11.40;90.10;;;;;;2088386;28;20013;-75
2020/12/24 04:32:57;;;;;;;2.83;1.70;;;11.40;90.10;;;;;;2088696;28;20094;-75
2020/12/24 04:33:58;;;;;;;2.67;1.70;;;11.40;90.10;;;;;;2088465;28;20036;-75
2020/12/24 04:34:59;;;;;;;3.33;1.50;;;11.40;90.10;;;;;;2088606;28;20021;-75
2020/12/24 04:35:59;;;;;;;2.25;1.63;;;11.40;90.20;;;;;;2088447;28;20057;-75
2020/12/24 04:37:00;;;;;;;2.42;1.45;;;11.40;90.30;;;;;;2088232;28;20028;-75
2020/12/24 04:38:01;;;;;;;3.20;2.20;;;11.40;90.30;;;;;;2089378;28;20021;-75
2020/12/24 04:39:03;;;;;;;3.38;1.88;;;11.30;90.20;;;;;;2089012;28;20032;-74
2020/12/24 04:40:04;;;;;;;3.83;1.70;;;11.40;90.10;;;;;;2089531;28;20410;-75
2020/12/24 04:41:05;;;;;;;2.33;1.70;;;11.40;90.00;;;;;;2089432;28;20123;-75
2020/12/24 04:42:06;;;;;;;1.40;1.30;;;11.40;90.00;;;;;;2089746;28;20041;-75
2020/12/24 04:43:07;;;;;;;2.67;1.30;;;11.40;90.10;;;;;;2089986;28;20699;-75
2020/12/24 04:44:08;;;;;;;3.78;1.55;;;11.40;90.10;;;;;;2089964;28;20025;-75
2020/12/24 04:45:09;;;;;;;2.10;1.40;;;11.40;89.90;;;;;;2089451;28;20037;-75
2020/12/24 04:46:12;;;;;;;2.42;1.60;;;11.40;89.80;;;;;;2081280;28;20030;-75
2020/12/24 04:47:15;;;;;;;2.38;1.50;;;11.40;89.80;;;;;;2081540;28;20159;-75
2020/12/24 04:48:19;;;;;;;3.45;1.50;;;11.40;89.90;;;;;;2089171;28;20585;-75
2020/12/24 04:49:20;;;;;;;2.40;1.40;;;11.40;89.80;;;;;;2089416;28;20060;-74
2020/12/24 04:50:24;;;;;;;2.65;1.50;;;11.40;90.00;;;;;;2090004;28;20025;-74
2020/12/24 04:51:26;;;;;;;2.30;1.50;;;11.40;90.00;;;;;;2089566;28;20028;-74
2020/12/24 04:52:26;;;;;;;1.65;1.40;;;11.40;89.90;;;;;;2081314;28;20030;-74
2020/12/24 04:53:27;;;;;;;2.80;1.40;;;11.40;89.90;;;;;;2081336;28;20029;-74
2020/12/24 04:54:31;;;;;;;1.48;1.23;;;11.40;90.00;;;;;;2089519;28;20104;-74
2020/12/24 04:55:32;;;;;;;4.05;1.35;;;11.40;90.00;;;;;;2081052;28;20068;-74
2020/12/24 04:56:32;;;;;;;1.73;1.20;;;11.30;90.00;;;;;;2081017;28;20038;-73
2020/12/24 04:57:34;;;;;;;2.53;1.50;;;11.30;90.00;;;;;;2081567;28;20141;-73
2020/12/24 04:58:35;;;;;;;2.40;1.35;;;11.30;90.00;;;;;;2081659;28;20029;-74
2020/12/24 04:59:39;;;;;;;2.80;1.20;;;11.30;89.80;;;;;;2081188;28;20057;-75
2020/12/24 05:00:39;;;;;;;2.30;1.30;;;11.30;89.70;;;;;;2081018;28;20049;-75
2020/12/24 05:01:40;;;;;;;1.83;1.40;;;11.40;89.60;;;;;;2080741;28;20042;-74
2020/12/24 05:02:41;;;;;;;2.65;1.40;;;11.40;89.50;;;;;;2081809;28;20048;-74
2020/12/24 05:03:42;;;;;;;1.92;1.40;;;11.40;89.60;;;;;;2081634;28;20370;-74
2020/12/24 05:04:43;;;;;;;2.67;1.40;;;11.40;89.50;;;;;;2081609;28;20582;-75
2020/12/24 05:05:44;;;;;;;1.40;1.30;;;11.40;89.70;;;;;;2081583;28;20104;-75
2020/12/24 05:06:44;;;;;;;2.50;1.40;;;11.40;89.40;;;;;;2081012;28;20029;-75
2020/12/24 05:07:45;;;;;;;2.30;1.42;;;11.40;89.30;;;;;;2080928;28;20621;-73
2020/12/24 05:08:51;;;;;;;1.40;1.30;;;11.40;89.20;;;;;;2081700;28;20053;-74
2020/12/24 05:09:52;;;;;;;2.28;1.60;;;11.40;88.90;;;;;;2081596;28;20512;-74
2020/12/24 05:11:08;;;;;;;2.08;1.60;;;11.40;88.80;;;;;;2081624;28;20032;-75
2020/12/24 05:12:09;;;;;;;1.70;1.50;;;11.40;88.80;;;;;;2080648;28;20072;-74
2020/12/24 05:13:17;;;;;;;1.73;1.20;;;11.40;88.80;;;;;;2080861;28;20852;-75
2020/12/24 05:14:20;;;;;;;2.45;1.50;;;11.40;88.90;;;;;;2081421;28;20026;-74
2020/12/24 05:15:29;;;;;;;1.95;1.38;;;11.40;88.70;;;;;;2081541;28;20025;-74
2020/12/24 05:16:30;;;;;;;1.67;1.30;;;11.40;88.80;;;;;;2072664;28;20408;-74
2020/12/24 05:17:30;;;;;;;2.70;1.40;;;11.40;88.80;;;;;;2075175;28;20030;-74
2020/12/24 05:18:31;;;;;;;2.08;1.30;;;11.40;88.60;;;;;;2080850;28;20060;-74